Time;durP1;ratioP1;P1;durP2;ratioP2;P2;SDS_P1;SDS_P2;PMS_P1;PMS_P2;Temp;Humidity;BMP_temperature;BMP_pressure;BME280_temperature;BME280_humidity;BME280_pressure;Samples;Min_cycle;Max_cycle;Signal;HPM_P1;HPM_P2
2021/11/22 00:00:10;;;;;;;9.63;8.63;;;;;;;13.60;70.38;100677.91;4899851;28;102239;-55
2021/11/22 00:02:37;;;;;;;9.95;8.80;;;;;;;13.60;70.36;100679.84;4898159;28;102151;-55
2021/11/22 00:05:04;;;;;;;9.45;8.55;;;;;;;13.60;70.29;100686.13;4887568;28;103911;-55
2021/11/22 00:07:31;;;;;;;10.82;8.35;;;;;;;13.60;70.35;100679.84;4897130;28;102656;-55
2021/11/22 00:09:58;;;;;;;9.75;8.75;;;;;;;13.60;70.44;100685.31;4900539;28;103471;-55
2021/11/22 00:12:26;;;;;;;9.32;8.43;;;;;;;13.60;70.46;100685.31;4896536;28;102265;-55
2021/11/22 00:14:56;;;;;;;10.05;9.05;;;;;;;13.60;70.41;100685.31;4894072;28;104931;-55
2021/11/22 00:17:22;;;;;;;10.82;8.38;;;;;;;13.59;70.68;100687.22;4894425;28;102485;-55
2021/11/22 00:19:52;;;;;;;8.80;7.85;;;;;;;13.60;70.39;100688.06;4893249;28;102433;-55
2021/11/22 00:22:20;;;;;;;9.13;8.23;;;;;;;13.60;70.38;100691.59;4890685;28;102593;-55
2021/11/22 00:24:46;;;;;;;9.68;8.38;;;;;;;13.60;70.51;100702.53;4892323;28;103801;-55
2021/11/22 00:27:13;;;;;;;9.45;8.52;;;;;;;13.60;70.30;100702.53;4894586;28;102381;-55
2021/11/22 00:29:39;;;;;;;10.50;8.35;;;;;;;13.59;70.51;100706.34;4892636;28;102700;-55
2021/11/22 00:32:07;;;;;;;8.77;7.88;;;;;;;13.60;70.61;100699.78;4895142;28;102158;-55
2021/11/22 00:34:41;;;;;;;10.07;8.60;;;;;;;13.60;70.32;100696.25;4894105;28;103738;-55
2021/11/22 00:37:14;;;;;;;9.27;8.27;;;;;;;13.60;70.55;100696.25;4894161;28;102695;-55
2021/11/22 00:39:43;;;;;;;9.52;8.52;;;;;;;13.59;70.41;100698.16;4898196;28;102333;-55
2021/11/22 00:42:10;;;;;;;10.13;8.88;;;;;;;13.59;70.47;100711.00;4892716;28;102657;-55
2021/11/22 00:44:38;;;;;;;10.55;8.52;;;;;;;13.60;70.18;100712.66;4890324;28;103809;-55
2021/11/22 00:47:06;;;;;;;9.25;8.10;;;;;;;13.60;70.37;100716.22;4887198;28;102130;-55
2021/11/22 00:49:36;;;;;;;9.70;8.73;;;;;;;13.59;70.58;100706.34;4897223;28;102455;-55
2021/11/22 00:52:03;;;;;;;;;;;;;;;13.60;70.46;100708.00;4893065;28;102609;-55
2021/11/22 00:54:30;;;;;;;8.68;7.78;;;;;;;13.60;70.38;100715.41;4886081;28;103914;-55
2021/11/22 00:56:57;;;;;;;10.38;8.43;;;;;;;13.60;70.26;100708.00;4893611;28;102378;-54
2021/11/22 00:59:23;;;;;;;9.50;8.60;;;;;;;13.60;70.28;100709.94;4894929;28;102129;-55
2021/11/22 01:01:50;;;;;;;8.55;7.72;;;;;;;13.60;70.42;100708.00;4893367;28;102354;-55
2021/11/22 01:04:17;;;;;;;9.30;8.25;;;;;;;13.59;70.63;100706.34;4896451;28;103751;-54
2021/11/22 01:06:46;;;;;;;9.43;8.48;;;;;;;13.59;70.51;100706.34;4895255;28;102216;-55
2021/11/22 01:09:12;;;;;;;10.13;7.97;;;;;;;13.59;70.33;100698.16;4898289;28;102289;-55
2021/11/22 01:11:39;;;;;;;9.07;7.93;;;;;;;13.60;70.46;100707.19;4898918;28;102474;-55
2021/11/22 01:14:06;;;;;;;9.43;8.35;;;;;;;13.60;70.64;100713.47;4894370;28;103922;-55
2021/11/22 01:16:33;;;;;;;9.18;8.30;;;;;;;13.59;70.59;100706.34;4889032;28;102193;-55
2021/11/22 01:19:00;;;;;;;9.50;8.50;;;;;;;13.59;70.35;100695.41;4887860;28;102320;-55
2021/11/22 01:21:27;;;;;;;9.80;8.80;;;;;;;13.60;70.49;100708.00;4893526;28;102323;-55
2021/11/22 01:23:55;;;;;;;9.07;8.15;;;;;;;13.60;70.44;100713.47;4896126;28;103883;-55
2021/11/22 01:26:22;;;;;;;9.48;8.48;;;;;;;13.61;70.58;100700.59;4894671;28;102395;-55
2021/11/22 01:28:48;;;;;;;9.55;8.55;;;;;;;13.59;70.37;100706.34;4894724;28;102465;-53
2021/11/22 01:31:14;;;;;;;9.60;8.70;;;;;;;13.60;70.50;100699.78;4895521;28;102091;-54
2021/11/22 01:33:41;;;;;;;10.95;8.70;;;;;;;13.60;70.51;100697.06;4891495;28;104209;-54
2021/11/22 01:36:08;;;;;;;9.13;8.20;;;;;;;13.59;70.50;100695.41;4874258;28;102198;-54
2021/11/22 01:38:37;;;;;;;9.57;8.57;;;;;;;13.61;70.37;100706.06;4873051;28;102098;-56
2021/11/22 01:41:05;;;;;;;10.02;9.02;;;;;;;13.60;70.75;100696.25;4875267;28;102282;-55
2021/11/22 01:43:33;;;;;;;9.68;8.68;;;;;;;13.61;70.65;100692.41;4881638;28;103880;-54
2021/11/22 01:46:00;;;;;;;9.05;8.10;;;;;;;13.60;70.62;100691.59;4880731;28;102680;-54
2021/11/22 01:48:27;;;;;;;9.10;8.05;;;;;;;13.60;70.41;100691.59;4870595;28;105586;-55
2021/11/22 01:50:54;;;;;;;9.25;8.15;;;;;;;13.61;70.49;100687.75;4876368;28;102893;-55
2021/11/22 01:53:22;;;;;;;9.43;8.52;;;;;;;13.60;70.90;100679.84;4872066;28;104147;-54
2021/11/22 01:55:49;;;;;;;9.57;8.40;;;;;;;13.60;70.42;100685.31;4864400;28;102724;-55
2021/11/22 01:58:18;;;;;;;9.77;8.77;;;;;;;13.60;70.32;100680.66;4872493;28;102454;-55
2021/11/22 02:00:47;;;;;;;9.05;8.15;;;;;;;13.59;70.43;100679.00;4872162;28;102641;-55
2021/11/22 02:03:15;;;;;;;11.07;9.02;;;;;;;13.60;70.58;100680.66;4868273;28;103916;-55
2021/11/22 02:05:42;;;;;;;9.60;8.60;;;;;;;13.59;70.50;100684.47;4876239;28;102057;-55
2021/11/22 02:08:09;;;;;;;9.80;8.73;;;;;;;13.60;70.46;100686.13;4876987;28;102208;-55
2021/11/22 02:10:36;;;;;;;9.20;8.27;;;;;;;13.60;70.44;100685.31;4874161;28;102254;-55
2021/11/22 02:13:04;;;;;;;8.68;7.85;;;;;;;13.60;70.49;100686.13;4873614;28;104612;-55
2021/11/22 02:15:32;;;;;;;9.38;8.30;;;;;;;13.60;70.34;100683.41;4871813;28;102352;-55
2021/11/22 02:17:59;;;;;;;10.40;8.40;;;;;;;13.60;70.45;100680.66;4881287;28;102578;-55
2021/11/22 02:20:28;;;;;;;9.63;8.65;;;;;;;13.60;70.55;100679.84;4876814;28;102381;-54
2021/11/22 02:22:57;;;;;;;9.25;8.25;;;;;;;13.60;70.44;100685.31;4868928;28;104029;-55
2021/11/22 02:25:24;;;;;;;;;;;;;;;13.61;70.86;100686.94;4876214;28;102466;-54
2021/11/22 02:27:51;;;;;;;8.98;8.07;;;;;;;13.60;70.56;100680.66;4870492;28;102216;-54
2021/11/22 02:30:19;;;;;;;8.98;7.93;;;;;;;13.59;70.34;100684.47;4877128;28;103239;-54
2021/11/22 02:32:46;;;;;;;8.45;7.55;;;;;;;13.60;70.70;100688.84;4868924;28;103903;-54
2021/11/22 02:35:17;;;;;;;9.02;8.13;;;;;;;13.60;70.53;100680.66;4887860;28;102435;-55
2021/11/22 02:37:45;;;;;;;8.60;7.80;;;;;;;13.60;70.40;100679.84;4890911;28;102139;-55
2021/11/22 02:40:12;;;;;;;9.25;8.35;;;;;;;13.60;70.61;100686.13;4891256;28;102586;-55
2021/11/22 02:42:42;;;;;;;8.68;7.80;;;;;;;13.61;70.69;100684.19;4889184;28;105563;-55
2021/11/22 02:45:10;;;;;;;9.88;8.88;;;;;;;13.60;70.63;100675.19;4891015;28;102147;-55
2021/11/22 02:47:37;;;;;;;9.52;8.38;;;;;;;13.60;70.94;100672.47;4894222;28;102449;-55
2021/11/22 02:50:04;;;;;;;9.32;8.35;;;;;;;13.59;70.54;100673.53;4904986;28;102403;-55
2021/11/22 02:52:31;;;;;;;9.27;8.13;;;;;;;13.59;70.48;100668.06;4889452;28;104151;-55
2021/11/22 02:54:58;;;;;;;9.15;8.25;;;;;;;13.60;70.59;100682.59;4887885;28;102398;-55
2021/11/22 02:57:25;;;;;;;9.07;8.13;;;;;;;13.60;70.45;100680.66;4892682;28;102847;-55
2021/11/22 02:59:51;;;;;;;9.23;8.25;;;;;;;13.59;70.75;100673.53;4900757;28;102410;-55
2021/11/22 03:02:18;;;;;;;8.73;7.82;;;;;;;13.60;70.65;100675.19;4895609;28;104229;-54
2021/11/22 03:04:46;;;;;;;9.55;8.57;;;;;;;13.60;70.54;100679.84;4889302;28;102672;-55
2021/11/22 03:07:12;;;;;;;8.57;7.68;;;;;;;13.59;70.83;100684.47;4896461;28;102141;-55
2021/11/22 03:09:39;;;;;;;9.13;8.23;;;;;;;13.60;70.57;100680.66;4899898;28;102790;-55
2021/11/22 03:12:20;;;;;;;9.07;8.15;;;;;;;13.60;70.55;100683.41;4884782;28;105600;-55
2021/11/22 03:14:47;;;;;;;9.90;9.00;;;;;;;13.61;70.75;100681.47;4894846;28;102380;-55
2021/11/22 03:17:14;;;;;;;9.65;8.65;;;;;;;13.60;70.72;100679.84;4889224;28;102604;-55
2021/11/22 03:19:40;;;;;;;9.98;8.98;;;;;;;13.59;70.88;100676.28;4884547;28;102825;-55
2021/11/22 03:22:06;;;;;;;9.77;8.88;;;;;;;13.60;70.64;100680.66;4892629;28;103890;-55
2021/11/22 03:24:33;;;;;;;9.55;8.57;;;;;;;13.59;70.78;100679.00;4885625;28;102274;-55
2021/11/22 03:27:01;;;;;;;10.02;8.52;;;;;;;13.59;70.56;100679.00;4894560;28;102031;-55
2021/11/22 03:29:29;;;;;;;8.93;7.93;;;;;;;13.59;70.70;100684.47;4894493;28;103059;-55
2021/11/22 03:31:56;;;;;;;9.45;8.40;;;;;;;13.59;70.74;100684.47;4886342;28;103955;-55
2021/11/22 03:34:23;;;;;;;9.30;8.40;;;;;;;13.60;70.61;100680.66;4902289;28;102417;-54
2021/11/22 03:36:50;;;;;;;9.07;8.18;;;;;;;13.59;70.63;100681.75;4896457;28;102760;-55
2021/11/22 03:39:22;;;;;;;9.18;8.27;;;;;;;13.59;71.25;100679.00;4897413;28;102544;-54
2021/11/22 03:41:49;;;;;;;8.85;8.05;;;;;;;13.59;70.81;100681.75;4889772;28;103956;-54
2021/11/22 03:44:16;;;;;;;9.75;8.75;;;;;;;13.60;70.45;100683.41;4898757;28;102349;-55
2021/11/22 03:46:47;;;;;;;9.25;8.35;;;;;;;13.60;70.76;100680.66;4901171;28;102349;-55
2021/11/22 03:49:13;;;;;;;9.15;8.25;;;;;;;13.59;70.56;100679.00;4893659;28;102458;-55
2021/11/22 03:51:40;;;;;;;9.32;8.35;;;;;;;13.59;70.73;100680.94;4898181;28;104001;-55
2021/11/22 03:54:07;;;;;;;9.13;8.23;;;;;;;13.59;70.62;100679.00;4898409;28;102071;-54
2021/11/22 03:56:34;;;;;;;9.40;8.50;;;;;;;13.59;70.68;100687.22;4893476;28;102185;-55
2021/11/22 03:59:00;;;;;;;8.20;7.40;;;;;;;13.60;70.59;100690.78;4897992;28;102817;-55
2021/11/22 04:01:27;;;;;;;9.45;8.55;;;;;;;13.59;70.73;100689.94;4909646;28;104071;-55
2021/11/22 04:03:55;;;;;;;10.15;8.98;;;;;;;13.59;70.45;100700.88;4902756;28;102114;-54
2021/11/22 04:06:21;;;;;;;9.07;8.18;;;;;;;13.58;70.49;100699.25;4895561;28;102157;-55
2021/11/22 04:08:50;;;;;;;9.52;8.55;;;;;;;13.59;70.73;100695.41;4901843;28;102202;-55
2021/11/22 04:11:17;;;;;;;8.60;7.80;;;;;;;13.59;70.51;100695.41;4894612;28;102925;-55
2021/11/22 04:13:43;;;;;;;9.02;8.13;;;;;;;13.60;70.49;100690.78;4900920;28;102508;-55
2021/11/22 04:16:10;;;;;;;8.85;8.05;;;;;;;13.60;70.54;100704.47;4894815;28;103349;-54
2021/11/22 04:18:37;;;;;;;8.82;7.97;;;;;;;13.58;70.11;100688.31;4893549;28;102553;-55
2021/11/22 04:21:05;;;;;;;8.68;7.78;;;;;;;13.59;70.59;100689.94;4893348;28;104121;-55
2021/11/22 04:23:33;;;;;;;9.07;8.18;;;;;;;13.59;70.77;100695.41;4891622;28;102048;-54
2021/11/22 04:25:59;;;;;;;9.30;8.40;;;;;;;13.59;70.53;100702.81;4896413;28;102564;-54
2021/11/22 04:28:26;;;;;;;8.25;7.45;;;;;;;13.59;70.54;100706.34;4899243;28;102675;-54
2021/11/22 04:30:52;;;;;;;8.80;7.93;;;;;;;13.59;70.57;100711.81;4893023;28;103941;-55
2021/11/22 04:33:19;;;;;;;8.75;7.88;;;;;;;13.59;70.66;100717.28;4898019;28;102146;-54
2021/11/22 04:35:45;;;;;;;9.40;8.50;;;;;;;13.59;70.68;100717.28;4892533;28;102008;-55
2021/11/22 04:38:13;;;;;;;8.82;7.93;;;;;;;13.59;70.68;100717.28;4891944;28;102707;-54
2021/11/22 04:40:40;;;;;;;8.95;8.05;;;;;;;13.59;70.58;100717.28;4893735;28;104081;-55
2021/11/22 04:43:06;;;;;;;8.40;7.60;;;;;;;13.60;70.84;100716.22;4885860;28;102276;-55
2021/11/22 04:45:33;;;;;;;9.07;8.18;;;;;;;13.59;70.73;100711.00;4901072;28;102120;-55
2021/11/22 04:48:01;;;;;;;9.18;8.23;;;;;;;13.60;70.67;100718.13;4896201;28;102612;-55
2021/11/22 04:50:28;;;;;;;8.35;7.55;;;;;;;13.59;70.94;100717.28;4893277;28;103965;-55
2021/11/22 04:52:55;;;;;;;8.57;7.63;;;;;;;13.60;70.54;100712.66;4896845;28;102551;-54
2021/11/22 04:55:24;;;;;;;8.82;8.00;;;;;;;13.60;70.51;100724.41;4895621;28;102552;-55
2021/11/22 04:57:52;;;;;;;8.50;7.70;;;;;;;13.59;70.58;100721.94;4895639;28;102295;-55
2021/11/22 05:00:21;;;;;;;8.73;7.82;;;;;;;13.58;70.70;100721.13;4893481;28;103804;-55
2021/11/22 05:02:53;;;;;;;8.57;7.78;;;;;;;13.59;70.77;100717.28;4896022;28;102210;-55
2021/11/22 05:05:20;;;;;;;8.75;7.85;;;;;;;13.59;70.67;100717.28;4897145;28;102087;-55
2021/11/22 05:07:47;;;;;;;9.18;8.27;;;;;;;13.59;70.62;100730.97;4896880;28;102314;-55
2021/11/22 05:10:15;;;;;;;8.32;7.53;;;;;;;13.58;70.80;100721.13;4906828;28;103941;-54
2021/11/22 05:12:43;;;;;;;8.85;7.95;;;;;;;13.59;70.67;100728.22;4871431;28;103227;-55
2021/11/22 05:15:10;;;;;;;8.85;7.90;;;;;;;13.59;70.68;100733.69;4892599;28;102574;-55
2021/11/22 05:17:40;;;;;;;9.30;7.90;;;;;;;13.59;70.65;100739.16;4889628;28;102542;-55
2021/11/22 05:20:07;;;;;;;8.70;7.82;;;;;;;13.60;70.65;100735.34;4896490;28;104028;-55
2021/11/22 05:22:34;;;;;;;9.05;8.15;;;;;;;13.60;70.73;100742.75;4897179;28;103789;-55
2021/11/22 05:25:03;;;;;;;7.70;7.00;;;;;;;13.60;70.79;100742.75;4896055;28;102054;-55
2021/11/22 05:27:30;;;;;;;7.93;7.13;;;;;;;13.60;70.77;100748.22;4889357;28;102261;-55
2021/11/22 05:29:58;;;;;;;8.77;7.88;;;;;;;13.60;70.77;100759.97;4894550;28;103949;-54
2021/11/22 05:32:24;;;;;;;8.63;7.70;;;;;;;13.60;71.03;100759.97;4889886;28;102107;-55
2021/11/22 05:34:52;;;;;;;8.65;7.75;;;;;;;13.59;70.70;100755.56;4893398;28;102310;-55
2021/11/22 05:37:19;;;;;;;8.93;8.02;;;;;;;13.60;70.67;100759.16;4889046;28;102206;-54
2021/11/22 05:39:46;;;;;;;8.35;7.55;;;;;;;13.59;70.66;100754.75;4905957;28;103887;-55
2021/11/22 05:42:14;;;;;;;8.93;8.02;;;;;;;13.60;70.84;100768.16;4892334;28;102579;-54
2021/11/22 05:44:41;;;;;;;7.90;7.10;;;;;;;13.59;70.65;100763.78;4890264;28;102206;-55
2021/11/22 05:47:10;;;;;;;7.78;7.07;;;;;;;13.59;70.89;100771.97;4896631;28;102345;-55
2021/11/22 05:49:37;;;;;;;7.90;7.20;;;;;;;13.60;70.57;100773.63;4898236;28;103912;-55
2021/11/22 05:52:04;;;;;;;7.75;7.05;;;;;;;13.59;70.63;100782.09;4891249;28;102285;-55
2021/11/22 05:54:32;;;;;;;8.40;7.60;;;;;;;13.60;70.79;100787.31;4896209;28;102332;-55
2021/11/22 05:57:00;;;;;;;8.40;7.60;;;;;;;13.60;70.77;100784.56;4890880;28;102189;-55
2021/11/22 05:59:27;;;;;;;8.18;7.38;;;;;;;13.60;70.79;100784.56;4893686;28;106590;-55
2021/11/22 06:01:54;;;;;;;8.05;7.30;;;;;;;13.60;71.13;100781.84;4891519;28;102925;-53
2021/11/22 06:04:22;;;;;;;8.63;7.57;;;;;;;13.60;70.88;100790.03;4888631;28;102508;-55
2021/11/22 06:06:48;;;;;;;8.43;7.57;;;;;;;13.61;70.73;100791.66;4888226;28;102225;-54
2021/11/22 06:09:15;;;;;;;8.25;7.35;;;;;;;13.60;70.75;100784.56;4888919;28;103920;-54
2021/11/22 06:11:43;;;;;;;8.45;7.65;;;;;;;13.60;71.10;100795.50;4898885;28;102103;-55
2021/11/22 06:14:10;;;;;;;8.70;7.67;;;;;;;13.61;70.83;100793.59;4891251;28;102362;-55
2021/11/22 06:16:36;;;;;;;8.02;7.22;;;;;;;13.61;70.67;100791.66;4890502;28;102162;-55
2021/11/22 06:19:02;;;;;;;9.10;8.20;;;;;;;13.61;70.67;100797.13;4887108;28;107004;-55
2021/11/22 06:21:30;;;;;;;7.53;6.75;;;;;;;13.62;70.89;100793.28;4887289;28;105746;-55
2021/11/22 06:23:59;;;;;;;8.32;7.53;;;;;;;13.61;71.00;100797.13;4891099;28;102340;-55
2021/11/22 06:26:25;;;;;;;8.70;7.73;;;;;;;13.62;70.83;100797.94;4892343;28;102629;-55
2021/11/22 06:28:52;;;;;;;8.40;7.53;;;;;;;13.62;70.80;100814.34;4891408;28;104011;-54
2021/11/22 06:31:20;;;;;;;8.05;7.25;;;;;;;13.61;70.77;100810.81;4890229;28;102274;-55
2021/11/22 06:33:47;;;;;;;7.72;7.03;;;;;;;13.62;70.80;100808.88;4890381;28;102550;-55
2021/11/22 06:36:13;;;;;;;8.25;7.45;;;;;;;13.62;70.75;100814.34;4890855;28;102423;-55
2021/11/22 06:38:41;;;;;;;8.38;7.47;;;;;;;13.61;70.73;100821.75;4886683;28;104173;-55
2021/11/22 06:41:07;;;;;;;7.68;6.88;;;;;;;13.62;70.87;100819.81;4894412;28;102406;-55
2021/11/22 06:43:34;;;;;;;8.30;7.50;;;;;;;13.62;70.96;100815.16;4893755;28;102223;-55
2021/11/22 06:46:00;;;;;;;8.32;7.53;;;;;;;13.62;70.80;100815.16;4896089;28;102797;-55
2021/11/22 06:48:27;;;;;;;8.70;7.80;;;;;;;13.62;70.58;100812.41;4892771;28;103931;-55
2021/11/22 06:50:53;;;;;;;8.52;7.20;;;;;;;13.62;71.09;100815.16;4896528;28;102204;-54
2021/11/22 06:53:21;;;;;;;8.23;7.22;;;;;;;13.61;70.78;100808.06;4896811;28;102186;-54
2021/11/22 06:55:50;;;;;;;7.57;6.88;;;;;;;13.62;70.83;100804.22;4904323;28;102295;-55
2021/11/22 06:58:17;;;;;;;8.07;7.28;;;;;;;13.62;70.98;100809.69;4893729;28;103951;-55
2021/11/22 07:00:44;;;;;;;7.78;6.97;;;;;;;13.62;70.92;100806.94;4895520;28;102525;-55
2021/11/22 07:03:10;;;;;;;9.15;7.75;;;;;;;13.63;70.97;100814.06;4891734;28;102680;-55
2021/11/22 07:05:37;;;;;;;8.60;7.70;;;;;;;13.63;70.86;100800.41;4889890;28;102529;-55
2021/11/22 07:08:07;;;;;;;8.18;7.38;;;;;;;13.62;71.03;100801.47;4894660;28;106828;-55
2021/11/22 07:10:35;;;;;;;9.48;7.78;;;;;;;13.64;70.89;100801.22;4897241;28;102617;-55
2021/11/22 07:13:03;;;;;;;8.98;7.50;;;;;;;13.65;70.92;100805.56;4899555;28;102262;-54
2021/11/22 07:15:35;;;;;;;8.82;7.93;;;;;;;13.64;70.99;100804.75;4897850;28;102324;-54
2021/11/22 07:18:03;;;;;;;9.50;8.15;;;;;;;13.65;70.90;100809.13;4889605;28;103783;-54
2021/11/22 07:20:31;;;;;;;8.55;7.15;;;;;;;13.65;70.98;100816.50;4895222;28;102308;-55
2021/11/22 07:22:58;;;;;;;8.57;7.60;;;;;;;13.66;70.92;100809.91;4893952;28;102730;-55
2021/11/22 07:25:26;;;;;;;8.02;7.15;;;;;;;13.65;70.84;100811.84;4897776;28;103237;-55
2021/11/22 07:27:53;;;;;;;10.45;7.82;;;;;;;13.66;71.08;100818.13;4893179;28;103977;-55
2021/11/22 07:30:21;;;;;;;8.50;7.35;;;;;;;13.68;71.28;100829.59;4894761;28;102370;-55
2021/11/22 07:32:53;;;;;;;9.00;7.72;;;;;;;13.67;70.57;100823.31;4902224;28;102579;-55
2021/11/22 07:35:20;;;;;;;8.23;7.43;;;;;;;13.66;70.95;100832.63;4898558;28;102520;-55
2021/11/22 07:37:48;;;;;;;8.07;7.28;;;;;;;13.67;71.04;100837.00;4894133;28;104049;-55
2021/11/22 07:40:15;;;;;;;8.68;7.80;;;;;;;13.67;70.98;100828.78;4896003;28;102455;-55
2021/11/22 07:42:42;;;;;;;8.02;7.20;;;;;;;13.67;71.05;100828.78;4891178;28;102519;-55
2021/11/22 07:45:09;;;;;;;9.38;7.38;;;;;;;13.67;70.93;100823.31;4893597;28;103830;-55
2021/11/22 07:47:37;;;;;;;8.45;7.60;;;;;;;13.67;70.93;100828.78;4871508;28;103941;-55
2021/11/22 07:50:04;;;;;;;8.70;7.63;;;;;;;13.67;70.96;100828.78;4890829;28;102579;-55
2021/11/22 07:52:31;;;;;;;8.73;7.80;;;;;;;13.67;71.04;100834.25;4897902;28;102237;-55
2021/11/22 07:54:58;;;;;;;8.35;7.43;;;;;;;13.67;70.88;100823.31;4892224;28;102180;-55
2021/11/22 07:57:24;;;;;;;8.75;7.85;;;;;;;13.67;70.93;100839.75;4886097;28;104029;-55
2021/11/22 07:59:51;;;;;;;8.95;7.88;;;;;;;13.68;70.78;100835.06;4894918;28;103525;-55
2021/11/22 08:02:17;;;;;;;9.55;8.13;;;;;;;13.68;70.88;100824.13;4894022;28;102820;-55
2021/11/22 08:04:45;;;;;;;8.55;7.75;;;;;;;13.67;70.86;100823.31;4895023;28;102377;-55
2021/11/22 08:07:17;;;;;;;9.75;7.57;;;;;;;13.67;71.12;100828.78;4894230;28;102715;-55
2021/11/22 08:09:56;;;;;;;9.45;8.32;;;;;;;13.68;71.04;100824.13;4897419;28;102213;-55
2021/11/22 08:12:32;;;;;;;8.73;7.80;;;;;;;13.68;71.14;100822.22;4892500;28;102570;-55
2021/11/22 08:15:02;;;;;;;9.00;8.10;;;;;;;13.67;70.89;100831.53;4892100;28;102151;-55
2021/11/22 08:17:30;;;;;;;9.45;8.38;;;;;;;13.67;71.02;100830.72;4889657;28;104011;-55
2021/11/22 08:19:58;;;;;;;8.90;8.00;;;;;;;13.68;70.93;100829.59;4896050;28;102297;-55
2021/11/22 08:22:25;;;;;;;9.30;8.25;;;;;;;13.68;71.32;100835.06;4899080;28;102378;-55
2021/11/22 08:24:53;;;;;;;9.45;8.55;;;;;;;13.68;70.87;100830.41;4897111;28;102216;-55
2021/11/22 08:27:21;;;;;;;9.30;8.30;;;;;;;13.68;70.92;100824.13;4896135;28;103831;-55
2021/11/22 08:29:48;;;;;;;9.50;8.32;;;;;;;13.67;70.99;100823.31;4894052;28;102483;-55
2021/11/22 08:32:15;;;;;;;8.80;7.90;;;;;;;13.68;71.12;100830.41;4896418;28;102597;-55
2021/11/22 08:34:41;;;;;;;10.10;8.55;;;;;;;13.67;70.70;100823.31;4896600;28;102533;-55
2021/11/22 08:37:09;;;;;;;9.68;7.93;;;;;;;13.66;70.84;100821.69;4897594;28;103864;-54
2021/11/22 08:39:35;;;;;;;9.48;8.40;;;;;;;13.67;71.00;100819.78;4894184;28;102191;-55
2021/11/22 08:42:03;;;;;;;9.30;8.38;;;;;;;13.67;70.86;100823.31;4896543;28;102225;-55
2021/11/22 08:44:30;;;;;;;10.27;9.27;;;;;;;13.66;71.43;100820.88;4897092;28;102235;-55
2021/11/22 08:46:57;;;;;;;11.35;8.88;;;;;;;13.67;70.88;100827.97;4894525;28;103914;-56
2021/11/22 08:49:24;;;;;;;10.73;9.10;;;;;;;13.66;70.79;100829.88;4892151;28;105058;-55
2021/11/22 08:51:51;;;;;;;10.02;8.95;;;;;;;13.67;71.04;100827.97;4893378;28;102227;-55
2021/11/22 08:54:18;;;;;;;10.23;9.23;;;;;;;13.67;70.46;100822.50;4889998;28;102302;-55
2021/11/22 08:56:46;;;;;;;10.35;9.35;;;;;;;13.67;70.95;100833.47;4894862;28;103895;-55
2021/11/22 08:59:14;;;;;;;10.85;9.48;;;;;;;13.67;71.14;100827.97;4899909;28;102094;-55
2021/11/22 09:01:41;;;;;;;10.50;9.35;;;;;;;13.66;71.09;100831.81;4897144;28;102378;-55
2021/11/22 09:04:07;;;;;;;10.55;9.45;;;;;;;13.66;70.82;100826.34;4901597;28;104565;-55
2021/11/22 09:06:34;;;;;;;10.52;9.43;;;;;;;13.66;71.12;100832.63;4896986;28;103918;-55
2021/11/22 09:09:02;;;;;;;10.55;9.32;;;;;;;13.66;70.83;100827.13;4898111;28;102185;-55
2021/11/22 09:11:35;;;;;;;11.13;9.75;;;;;;;13.67;71.08;100837.00;4904256;28;102233;-55
2021/11/22 09:14:02;;;;;;;11.90;10.20;;;;;;;13.66;70.93;100824.41;4904081;28;102354;-55
2021/11/22 09:16:28;;;;;;;11.15;10.05;;;;;;;13.67;70.92;100823.31;4903917;28;103869;-55
2021/11/22 09:18:55;;;;;;;11.63;9.73;;;;;;;13.67;70.94;100836.19;4898175;28;102146;-55
2021/11/22 09:21:22;;;;;;;11.93;9.90;;;;;;;13.66;70.88;100827.13;4895116;28;102296;-55
2021/11/22 09:23:49;;;;;;;12.07;10.52;;;;;;;13.66;70.94;100838.09;4898887;28;102131;-55
2021/11/22 09:26:16;;;;;;;12.73;10.20;;;;;;;13.66;71.05;100824.41;4882076;28;103920;-55
2021/11/22 09:28:45;;;;;;;11.85;10.65;;;;;;;13.66;70.95;100837.28;4894414;28;102091;-55
2021/11/22 09:31:11;;;;;;;12.60;10.70;;;;;;;13.67;70.79;100834.25;4881408;28;102633;-55
2021/11/22 09:33:38;;;;;;;12.27;10.68;;;;;;;13.66;70.95;100837.28;4896047;28;102142;-55
2021/11/22 09:36:04;;;;;;;11.90;10.68;;;;;;;13.66;70.99;100843.56;4892257;28;104374;-55
2021/11/22 09:38:31;;;;;;;11.20;10.05;;;;;;;13.66;70.85;100838.09;4896303;28;102277;-55
2021/11/22 09:40:58;;;;;;;11.90;10.70;;;;;;;13.66;70.85;100840.81;4894576;28;102667;-55
2021/11/22 09:43:27;;;;;;;13.50;10.77;;;;;;;13.67;70.82;100839.75;4882151;28;102209;-55
2021/11/22 09:45:54;;;;;;;15.15;11.77;;;;;;;13.66;70.94;100838.09;4890127;28;104356;-55
2021/11/22 09:48:21;;;;;;;11.43;10.23;;;;;;;13.66;70.85;100840.81;4897584;28;102114;-55
2021/11/22 09:50:48;;;;;;;51.40;14.60;;;;;;;13.67;70.83;100841.66;4872891;28;102405;-55
2021/11/22 09:53:15;;;;;;;220.13;31.40;;;;;;;13.67;70.87;100841.66;4891028;28;102194;-55
2021/11/22 09:55:42;;;;;;;15.77;11.80;;;;;;;13.67;70.97;100839.75;4893652;28;103939;-55
2021/11/22 09:58:11;;;;;;;11.48;10.27;;;;;;;13.67;70.88;100838.94;4900896;28;103101;-55
2021/11/22 10:00:41;;;;;;;12.82;11.18;;;;;;;13.66;70.80;100838.09;4900410;28;102810;-55
2021/11/22 10:03:14;;;;;;;13.27;11.88;;;;;;;13.66;70.91;100843.56;4881338;28;102647;-55
2021/11/22 10:05:42;;;;;;;14.10;10.57;;;;;;;13.66;71.03;100846.28;4894805;28;104049;-55
2021/11/22 10:08:10;;;;;;;13.15;11.02;;;;;;;13.67;71.21;100839.75;4900594;28;102534;-55
2021/11/22 10:10:40;;;;;;;13.47;11.93;;;;;;;13.66;71.00;100849.03;4891593;28;103431;-55
2021/11/22 10:13:26;;;;;;;13.90;12.02;;;;;;;13.66;70.84;100849.03;4897124;28;102513;-55
2021/11/22 10:15:55;;;;;;;13.20;11.32;;;;;;;13.66;70.97;100849.03;4900043;28;108257;-55
2021/11/22 10:18:24;;;;;;;13.77;12.18;;;;;;;13.66;71.07;100843.56;4895332;28;102703;-55
2021/11/22 10:20:53;;;;;;;16.20;13.18;;;;;;;13.66;70.94;100843.56;4892252;28;102534;-55
2021/11/22 10:23:25;;;;;;;15.57;11.77;;;;;;;13.66;70.78;100843.56;4888045;28;102138;-54
2021/11/22 10:25:53;;;;;;;14.32;11.90;;;;;;;13.66;71.03;100857.22;4886372;28;105175;-55
2021/11/22 10:28:22;;;;;;;14.30;11.63;;;;;;;13.66;70.78;100865.44;4895247;28;102049;-55
2021/11/22 10:30:51;;;;;;;13.82;11.93;;;;;;;13.66;71.17;100859.97;4890212;28;102985;-55
2021/11/22 10:33:20;;;;;;;14.33;12.70;;;;;;;13.66;71.06;100859.97;4889499;28;102236;-55
2021/11/22 10:35:49;;;;;;;15.05;12.13;;;;;;;13.66;70.90;100859.97;4890506;28;103971;-55
2021/11/22 10:38:18;;;;;;;13.90;12.13;;;;;;;13.66;70.83;100854.50;4890240;28;102457;-55
2021/11/22 10:40:48;;;;;;;15.60;12.68;;;;;;;13.66;70.85;100853.69;4894218;28;102256;-55
2021/11/22 10:43:15;;;;;;;13.40;12.00;;;;;;;13.66;71.17;100853.69;4887410;28;102244;-54
2021/11/22 10:45:43;;;;;;;13.90;11.75;;;;;;;13.66;71.04;100848.22;4890538;28;106230;-55
2021/11/22 10:48:17;;;;;;;13.57;12.18;;;;;;;13.66;70.87;100845.47;4890238;28;102116;-55
2021/11/22 10:50:53;;;;;;;16.27;11.50;;;;;;;13.66;71.05;100854.50;4892512;28;103363;-55
2021/11/22 10:53:35;;;;;;;13.10;11.48;;;;;;;13.65;71.00;100847.41;4895421;28;102111;-54
2021/11/22 10:56:04;;;;;;;13.00;11.43;;;;;;;13.64;70.83;100840.31;4892309;28;103677;-55
2021/11/22 10:58:46;;;;;;;13.93;11.80;;;;;;;13.65;70.96;100841.94;4893130;28;102229;-55
2021/11/22 11:01:16;;;;;;;13.18;11.73;;;;;;;13.65;70.71;100843.84;4890757;28;102423;-55
2021/11/22 11:03:55;;;;;;;15.15;12.20;;;;;;;13.66;70.85;100845.47;4894116;28;102387;-55
2021/11/22 11:06:37;;;;;;;13.60;12.20;;;;;;;13.65;70.99;100841.94;4886853;28;103942;-55
2021/11/22 11:09:07;;;;;;;13.02;11.63;;;;;;;13.65;70.67;100841.94;4887919;28;102610;-55
2021/11/22 11:11:34;;;;;;;15.10;12.50;;;;;;;13.65;70.82;100841.13;4890561;28;102956;-54
2021/11/22 11:14:05;;;;;;;14.82;12.52;;;;;;;13.64;70.91;100837.56;4889743;28;104710;-55
2021/11/22 11:16:34;;;;;;;14.45;12.45;;;;;;;13.64;70.64;100834.84;4890001;28;104234;-55